Station NWPR1 - 8452660 - Newport, RI Image indicating link to RSS feed of recent meteorological observations for station NWPR1


Conditions at NWPR1 as of
(9:00 am EDT)
1300 GMT on 09/01/2026:
     

Click on the graph icon in the table below to see a time series plot of the last five days of that observation.

5-day plot - Wind Direction Wind Direction (WDIR):ESE ( 110 deg true )
5-day plot - Wind Speed Wind Speed (WSPD): 5.1 kts
5-day plot - Wind Gust Wind Gust (GST): 7.0 kts
5-day plot - Atmospheric Pressure Atmospheric Pressure (PRES):30.04 in
5-day plot - Pressure Tendency Pressure Tendency (PTDY):+0.01 in ( Rising )
5-day plot - Air Temperature Air Temperature (ATMP): 69.4 °F
5-day plot - Water Temperature Water Temperature (WTMP): 69.6 °F
5-day plot - Wind Speed at 10 Meters Wind Speed at 10 meters (WSPD10M): 5.8 kts
5-day plot - Wind Speed at 20 Meters Wind Speed at 20 meters (WSPD20M): 5.8 kts
5-day plot -  Wind Speed, Wind Gust and Atmospheric Pressure Combined plot of Wind Speed, Gust, and Air Pressure
NOS Water Level Observation Network Water Level
Previous observations
TIME
(EDT)
5-day plot - Wind Direction
WDIR
 
5-day plot - Wind Speed
WSPD
kts
5-day plot - Wind Gust
GST
kts
5-day plot - Wave Height
WVHT
ft
5-day plot - Dominant Wave Period
DPD
sec
5-day plot - Average Wave Period
APD
sec
5-day plot - Mean Wave Direction
MWD
 
5-day plot - Atmospheric Pressure
PRES
in
5-day plot - Pressure Tendency
PTDY
in
5-day plot - Air Temperature
ATMP
°F
5-day plot - Water Temperature
WTMP
°F
5-day plot - Dew Point
DEWP
°F
5-day plot - Salinity
SAL
psu
5-day plot - Visibility
VIS
nmi
5-day plot - Tide (above MLLW)
TIDE
ft
2026-09-01 08:54 amESE 6.0 8.0----30.04- 69.8 69.6----
2026-09-01 08:48 amESE 5.1 7.0----30.04-- 69.6----
2026-09-01 08:42 amESE 6.0 7.0----30.04-- 69.6----
2026-09-01 08:36 amESE 5.1 6.0----30.04-- 69.6----
2026-09-01 08:30 am SE 5.1 8.9----30.04- 69.8 69.6----
2026-09-01 08:24 amESE 6.0 8.9----30.04- 69.8 69.6----
2026-09-01 08:18 amESE 7.0 9.9----30.04-- 69.6----
2026-09-01 08:12 amESE 6.0 8.9----30.04-- 69.6----
2026-09-01 08:06 am SE 6.0 9.9----30.04-- 69.6----
2026-09-01 08:00 am SE 7.0 8.9----30.04+0.01 69.8 69.6----
2026-09-01 07:54 am SE 7.0 8.9----30.04- 69.8 69.6----
2026-09-01 07:48 am SE 5.1 8.9----30.04- 70.0 69.6----
2026-09-01 07:42 am SE 5.1 7.0----30.05- 70.0 69.6----
2026-09-01 07:36 am SE 6.0 8.0----30.05- 70.0 69.6----
2026-09-01 07:30 am SE 6.0 8.0----30.05- 70.0 69.6----
2026-09-01 07:24 amESE 5.1 8.0----30.04- 70.0 69.6----
2026-09-01 07:18 am SE 6.0 8.9----30.04-- 69.6----
2026-09-01 07:12 amESE 5.1 7.0----30.04-- 69.6----
2026-09-01 07:06 amESE 5.1 7.0----30.04-- 69.6----
2026-09-01 07:00 amESE 5.1 8.0----30.04-0.01 69.8 69.6----
2026-09-01 06:54 amESE 6.0 8.9----30.04- 69.8 69.6----
2026-09-01 06:48 amESE 7.0 8.9----30.03- 69.8 69.6----
2026-09-01 06:42 amESE 5.1 7.0----30.03- 69.8 69.6----
2026-09-01 06:36 amESE 6.0 7.0----30.03- 69.8 69.6----
2026-09-01 06:30 amESE 5.1 5.1----30.03- 69.8 69.6----
2026-09-01 06:24 amESE 4.1 6.0----30.03- 69.8 69.6----
2026-09-01 06:18 amESE 2.9 4.1----30.03-- 69.6----
2026-09-01 06:12 am E 2.9 5.1----30.03-- 69.6----
2026-09-01 06:06 amESE 2.9 4.1----30.03-- 69.6----
2026-09-01 06:00 am E 2.9 4.1----30.03- 70.2 69.6----
2026-09-01 05:54 amESE 2.9 5.1----30.03- 70.2 69.6----
2026-09-01 05:48 am E 2.9 4.1----30.03- 70.2 69.8----
2026-09-01 05:42 amESE 2.9 4.1----30.02- 70.2 69.8----
2026-09-01 05:36 amESE 2.9 5.1----30.02- 70.2 69.8----
2026-09-01 05:30 am SE 4.1 6.0----30.02- 70.2 69.8----
2026-09-01 05:24 am SE 5.1 6.0----30.02- 70.0 69.8----
2026-09-01 05:18 am SE 5.1 5.1----30.02-- 69.8----
2026-09-01 05:12 am SE 4.1 6.0----30.02-- 69.8----
2026-09-01 05:06 am SE 5.1 6.0----30.02-- 69.8----
2026-09-01 05:00 am SE 5.1 6.0----30.03-0.04 70.0 69.8----
2026-09-01 04:54 amESE 4.1 5.1----30.03- 70.2 69.8----
2026-09-01 04:48 amESE 2.9 4.1----30.04-- 69.8----
2026-09-01 04:42 amESE 2.9 4.1----30.04-- 70.0----
2026-09-01 04:36 amESE 2.9 4.1----30.05-- 70.0----
2026-09-01 04:30 amESE 1.9 2.9----30.05- 70.2 70.0----
2026-09-01 04:24 am E 1.9 2.9----30.05- 70.2 70.0----
2026-09-01 04:18 am SE 2.9 4.1----30.05-- 70.0----
2026-09-01 04:12 amESE 1.9 4.1----30.05-- 70.0----
2026-09-01 04:06 amESE 1.9 2.9----30.05-- 70.2----
2026-09-01 04:00 am SE 1.0 2.9----30.05-0.02 70.2 70.2----
2026-09-01 03:54 amSSE 1.9 2.9----30.05- 70.2 70.2----
2026-09-01 03:48 amSSE 1.9 2.9----30.05- 70.3 70.2----
2026-09-01 03:42 am S 2.9 4.1----30.05- 70.3 70.3----
2026-09-01 03:36 am S 4.1 5.1----30.05- 70.3 70.3----
2026-09-01 03:30 am S 5.1 6.0----30.04- 70.3 70.3----
2026-09-01 03:24 am S 5.1 6.0----30.05- 70.3 70.3----
2026-09-01 03:18 amSSE 4.1 6.0----30.05- 70.3 70.3----
2026-09-01 03:12 am S 5.1 5.1----30.05- 70.3 70.3----
2026-09-01 03:06 amSSE 2.9 4.1----30.05- 70.2 70.3----
2026-09-01 03:00 am SE 2.9 4.1------ 70.2 70.3----
2026-09-01 02:54 amSSE 2.9 4.1------ 70.2 70.3----
2026-09-01 02:48 amSSE 2.9 4.1----30.06- 70.2 70.3----
2026-09-01 02:42 am S 2.9 4.1----30.06- 70.2 70.3----
2026-09-01 02:36 am S 2.9 2.9----30.06- 70.2 70.3----
2026-09-01 02:30 am S 2.9 4.1----30.07-- 70.3----
2026-09-01 02:24 am S 2.9 4.1----30.06-- 70.3----
2026-09-01 02:18 am S 2.9 4.1----30.06-- 70.3----
2026-09-01 02:12 am S 2.9 2.9----30.06-- 70.3----
2026-09-01 02:06 am S 1.9 2.9----30.06-- 70.3----
2026-09-01 02:00 am S 2.9 4.1----30.06-0.01 70.2 70.3----
2026-09-01 01:54 am S 2.9 4.1----30.06- 70.2 70.3----
2026-09-01 01:48 am S 4.1 4.1----30.06- 70.0 70.3----
2026-09-01 01:42 am S 2.9 4.1----30.06- 70.0 70.3----
2026-09-01 01:36 am S 2.9 4.1----30.06- 70.0 70.2----
2026-09-01 01:30 am S 4.1 5.1----30.06- 70.0 70.2----
2026-09-01 01:24 am S 4.1 5.1----30.07- 70.0 70.2----
2026-09-01 01:18 am S 4.1 5.1----30.07-- 70.2----
2026-09-01 01:12 am S 2.9 4.1----30.07-- 70.2----
2026-09-01 01:06 am S 2.9 2.9----30.07-- 70.2----
2026-09-01 01:00 am S 2.9 4.1----30.07-0.02 70.2 70.2----
2026-09-01 12:54 am S 2.9 2.9----30.07- 70.2 70.2----
2026-09-01 12:48 am S 2.9 2.9----30.08- 70.2 70.2----
2026-09-01 12:42 amSSE 2.9 5.1----30.08- 70.2 70.2----
2026-09-01 12:36 am S 1.9 2.9----30.08- 70.2 70.2----
2026-09-01 12:30 am S 2.9 4.1----30.08- 70.2 70.2----
2026-09-01 12:24 am S 4.1 4.1----30.08- 70.2 70.2----
2026-09-01 12:18 am S 2.9 2.9----30.08-- 70.2----
2026-09-01 12:12 am S 2.9 4.1----30.08-- 70.3----
2026-09-01 12:06 am S 4.1 4.1----30.09-- 70.3----
2026-09-01 12:00 amSSW 4.1 4.1----30.09-0.01 70.2 70.3----
2026-08-31 11:54 pm S 4.1 4.1----30.09- 70.2 70.3----
2026-08-31 11:48 pm S 4.1 6.0----30.09-- 70.3----
2026-08-31 11:42 pm S 5.1 5.1----30.08-- 70.3----
2026-08-31 11:36 pm S 5.1 6.0----30.08-- 70.3----
2026-08-31 11:30 pm S 5.1 8.0----30.09- 70.2 70.5----
2026-08-31 11:24 pm S 6.0 7.0----30.08- 70.2 70.5----
2026-08-31 11:18 pm S 6.0 8.0------- 70.5----
2026-08-31 11:12 pm S 6.0 8.0------- 70.5----
2026-08-31 11:06 pm S 6.0 8.9------- 70.5----
2026-08-31 11:00 pmSSE 7.0 8.9----30.08-0.02 69.8 70.5----
2026-08-31 10:54 pmSSE 5.1 8.0----30.08- 69.8 70.5----
2026-08-31 10:48 pmSSE 7.0 8.9----30.08- 69.8 70.5----
2026-08-31 10:42 pmSSE 7.0 8.0----30.08- 69.8 70.5----
2026-08-31 10:36 pm S 6.0 7.0----30.09- 69.6 70.5----
2026-08-31 10:30 pmSSE 6.0 8.0----30.09- 69.6 70.5----
2026-08-31 10:24 pmSSE 6.0 7.0----30.09- 69.4 70.5----
2026-08-31 10:18 pmSSE 6.0 7.0----30.09-- 70.5----
2026-08-31 10:12 pm S 5.1 7.0----30.09-- 70.5----
2026-08-31 10:06 pm S 5.1 6.0----30.09-- 70.5----
2026-08-31 10:00 pm S 5.1 7.0----30.10+0.00 69.6 70.5----
2026-08-31 09:54 pm S 6.0 7.0----30.10- 69.6 70.5----
2026-08-31 09:48 pm S 6.0 8.0----30.10- 69.6 70.5----
2026-08-31 09:42 pm S 6.0 7.0----30.09- 69.6 70.5----
2026-08-31 09:36 pm S 5.1 7.0----30.10- 69.6 70.5----
2026-08-31 09:30 pm S 5.1 8.0----30.09- 69.6 70.5----
2026-08-31 09:24 pm S 5.1 8.0----30.09- 69.8 70.5----
2026-08-31 09:18 pm S 6.0 8.0----30.09-- 70.3----
2026-08-31 09:12 pm S 6.0 8.0----30.09-- 70.3----
2026-08-31 09:06 pm S 7.0 8.0----30.09-- 70.3----
2026-08-31 09:00 pm S 6.0 7.0----30.09+0.00 70.0 70.3----
2026-08-31 08:54 pmSSE 5.1 7.0----30.09- 70.2 70.3----
2026-08-31 08:48 pm S 6.0 8.0----30.09-- 70.3----
2026-08-31 08:42 pm S 7.0 8.0----30.09-- 70.3----
2026-08-31 08:36 pm S 7.0 8.0----30.09-- 70.3----
2026-08-31 08:30 pm S 5.1 7.0----30.09- 70.2 70.3----
2026-08-31 08:24 pm S 5.1 6.0----30.09- 70.0 70.3----
2026-08-31 08:18 pm S 5.1 6.0----30.09-- 70.3----
2026-08-31 08:12 pm S 5.1 7.0----30.09-- 70.3----
2026-08-31 08:06 pm S 6.0 7.0----30.09-- 70.3----
2026-08-31 08:00 pm S 5.1 7.0----30.09-0.01 70.0 70.3----
2026-08-31 07:54 pm S 5.1 7.0----30.09- 70.0 70.3----
2026-08-31 07:48 pm S 6.0 8.0----30.09-- 70.3----
2026-08-31 07:42 pm S 6.0 8.0----30.10-- 70.3----
2026-08-31 07:36 pm S 6.0 7.0----30.10-- 70.3----
2026-08-31 06:48 pm S 5.1 8.9----30.10- 69.8 70.3----
2026-08-31 06:42 pm S 7.0 8.0----30.10- 69.8 70.3----
2026-08-31 06:36 pm S 8.0 8.9----30.10- 69.8 70.3----
2026-08-31 06:30 pm S 7.0 8.0----30.10- 69.8 70.2----
2026-08-31 06:24 pm S 6.0 8.0----30.10- 69.8 70.2----
2026-08-31 06:18 pm S 5.1 8.9----30.10- 69.8 70.3----
2026-08-31 06:12 pm S 8.0 8.9----30.10- 69.8 70.2----
2026-08-31 06:06 pm S 6.0 8.9----30.10- 69.8 70.2----
2026-08-31 06:00 pm S 7.0 9.9----30.10-0.01 69.8 70.3----
2026-08-31 05:54 pm S 8.0 9.9----30.10- 69.8 70.2----
2026-08-31 05:48 pm S 7.0 8.9----30.10- 69.8 70.2----
2026-08-31 05:42 pm S 7.0 8.9----30.11- 69.8 70.2----
2026-08-31 05:36 pm S 7.0 8.9----30.11- 70.0 70.3----
2026-08-31 05:30 pm S 8.0 8.9----30.11- 70.0 70.3----
2026-08-31 05:24 pm S 7.0 8.9----30.11- 70.0 70.3----
2026-08-31 05:18 pm S 6.0 8.9----30.11-- 70.3----
2026-08-31 05:12 pm S 8.0 9.9----30.11-- 70.3----
2026-08-31 05:06 pm S 7.0 8.9----30.10-- 70.3----
2026-08-31 05:00 pm S 7.0 8.9----30.11-0.02 70.5 70.3----
2026-08-31 04:54 pmSSW 7.0 9.9----30.11- 70.5 70.3----
2026-08-31 04:48 pm S 7.0 8.9----30.10- 72.0 70.3----
2026-08-31 04:42 pm S 6.0 8.0----30.09- 72.5 70.2----
2026-08-31 04:36 pm S 7.0 9.9----30.09- 71.8 70.2----
2026-08-31 04:30 pm S 8.0 8.0----30.09- 71.8 70.0----
2026-08-31 04:24 pm S 6.0 8.9----30.10- 71.8 70.0----
2026-08-31 04:18 pm S 6.0 8.0----30.10-- 69.8----
2026-08-31 04:12 pm S 6.0 7.0----30.10-- 69.8----
2026-08-31 04:06 pm S 6.0 8.0----30.10-- 69.8----
2026-08-31 04:00 pm S 6.0 7.0----30.11-0.02 71.6 70.0----
2026-08-31 03:54 pm S 6.0 8.0----30.11- 71.2 70.0----
2026-08-31 03:48 pm S 7.0 8.9----30.11- 71.2 69.8----
2026-08-31 03:42 pm S 8.9 9.9----30.11- 71.1 69.6----
2026-08-31 03:36 pm S 8.0 9.9----30.11- 70.9 69.6----
2026-08-31 03:30 pmSSE 8.0 9.9----30.11- 71.1 69.4----
2026-08-31 03:24 pmSSE 8.9 11.1----30.11- 71.2 69.3----
2026-08-31 03:18 pm S 8.0 9.9----30.11-- 69.3----
2026-08-31 03:12 pmSSE 7.0 9.9----30.11-- 69.3----
2026-08-31 03:06 pmSSE 7.0 9.9----30.11-- 69.3----
2026-08-31 03:00 pm SE 8.9 9.9----30.11-0.02 71.4 69.1----
2026-08-31 02:54 pm S 8.9 11.1----30.11- 71.8 69.1----
2026-08-31 02:48 pm S 8.0 8.9----30.12- 72.5 69.3----
2026-08-31 02:42 pm S 7.0 8.0----30.12- 72.9 69.3----
2026-08-31 02:36 pm S 6.0 8.0----30.13- 73.6 69.3----
2026-08-31 02:30 pm S 7.0 8.0----30.13- 73.9 69.3----
2026-08-31 02:24 pm S 7.0 11.1----30.13- 73.2 69.4----
2026-08-31 02:18 pm S 8.0 8.0----30.12-- 69.4----
2026-08-31 02:12 pm S 6.0 8.0----30.12-- 69.1----
2026-08-31 02:06 pmSSW 7.0 8.0----30.12-- 69.4----
2026-08-31 02:00 pm S 7.0 7.0----30.13-0.02 73.4 69.8----
2026-08-31 01:54 pmSSW 5.1 8.0----30.13- 73.4 69.6----
2026-08-31 01:48 pmSSW 5.1 6.0----30.13-- 69.6----
2026-08-31 01:42 pmSSW 4.1 7.0----30.13-- 69.4----
2026-08-31 01:36 pmSSW 5.1 6.0----30.13-- 69.6----
2026-08-31 01:30 pmSSW 5.1 7.0----30.13- 73.4 69.4----
2026-08-31 01:24 pm S 5.1 8.0----30.13- 73.6 69.4----
2026-08-31 01:18 pmSSW 5.1 5.1----30.13-- 69.3----
2026-08-31 01:12 pm S 1.9 4.1----30.13-- 69.4----
2026-08-31 01:06 pm SW 2.9 4.1----30.13-- 69.4----
2026-08-31 01:00 pm W 2.9 2.9----30.13+0.00 73.0 69.1----
2026-08-31 12:54 pmWSW 1.9 1.9----30.13- 72.9 68.9----
2026-08-31 12:48 pmWSW 1.9 4.1----30.14- 72.7 69.1----
2026-08-31 12:42 pmWSW 4.1 5.1----30.14- 72.0 69.3----
2026-08-31 12:36 pm W 4.1 6.0----30.14- 72.1 69.4----
2026-08-31 12:30 pm W 4.1 7.0----30.14- 72.9 69.8----
2026-08-31 12:24 pmWNW 5.1 7.0----30.14- 72.9 69.6----
2026-08-31 12:18 pm NW 5.1 7.0----30.14-- 69.8----
2026-08-31 12:12 pm NW 5.1 7.0----30.14-- 69.8----
2026-08-31 12:06 pmWNW 5.1 7.0----30.13-- 69.8----
2026-08-31 12:00 pm NW 5.1 8.0----30.13+0.01 72.5 69.8----
2026-08-31 11:54 amNNW 6.0 8.0----30.14- 71.8 69.6----
2026-08-31 11:48 am N 4.1 8.9----30.14- 72.1 69.6----
2026-08-31 11:42 amNNW 7.0 8.9----30.14- 71.6 69.4----
2026-08-31 11:36 amNNW 6.0 8.0----30.14- 71.8 69.1----
2026-08-31 11:30 am N 6.0 8.9----30.14- 71.6 68.9----
2026-08-31 11:24 am N 6.0 8.0----30.14- 71.2 68.9----
2026-08-31 11:18 amNNW 7.0 9.9----30.14-- 68.9----
2026-08-31 11:12 am N 7.0 9.9----30.14-- 69.1----
2026-08-31 11:06 am N 8.0 8.9----30.15-- 69.1----
2026-08-31 11:00 amNNW 7.0 9.9----30.14+0.03 71.1 69.3----
2026-08-31 10:54 am N 7.0 8.9----30.14- 70.7 69.3----
2026-08-31 10:48 am N 6.0 8.9----30.14- 70.7 69.3----
2026-08-31 10:42 am N 6.0 9.9----30.14- 70.9 69.3----
2026-08-31 10:36 am N 6.0 9.9----30.14- 70.9 69.3----
2026-08-31 10:30 am N 6.0 9.9----30.14- 70.9 69.3----
2026-08-31 10:24 am N 6.0 9.9----30.14- 70.9 69.3----
2026-08-31 10:18 amNNE 4.1 7.0----30.14-- 69.3----
2026-08-31 10:12 amNNE 6.0 8.9----30.14-- 69.4----
2026-08-31 10:06 amNNE 6.0 9.9----30.14-- 69.4----
2026-08-31 10:00 amNNE 6.0 9.9----30.13+0.02 70.5 69.4----
2026-08-31 09:54 am NE 7.0 9.9----30.13- 70.2 69.6----
2026-08-31 09:48 amNNE 8.0 11.1----30.13-- 69.6----
2026-08-31 09:42 am NE 8.0 13.0----30.13-- 69.8----
2026-08-31 09:36 amNNE 8.0 9.9----30.13-- 69.6----
2026-08-31 09:30 amNNE 7.0 12.0----30.12- 70.0 69.6----
2026-08-31 09:24 amNNE 8.9 12.0----30.12- 70.2 69.4----
2026-08-31 09:18 amNNE 8.0 13.0----30.12-- 69.6----
2026-08-31 09:12 amNNE 9.9 9.9----30.12-- 69.8----
2026-08-31 09:06 amNNE 7.0 8.9----30.12-- 69.8----
2026-08-31 09:00 amNNE 7.0 15.0----30.12+0.04 69.8 69.8----
2026-08-31 08:54 amNNE 8.0 9.9----30.12- 69.8 69.8----